Intl Falls, Minnesota
Current Conditions -  °F | °C
As of 12:55 AM on Tuesday 21 Oct 2014 (Local Time) from KINL Reporting Station
Overcast Overcast  
Wind Chill: 37°   Ceiling: 2000
Heat Index: 42°   Visibility: 10mi
Dew Point: 34°   Wind: 8mph
Humidity: 73%   Direction: 100°E
Pressure: 30.14"   Gusts: NA
Location:  48.5229°N, 93.3185°W
Report Text: KINL 210555Z AUTO 10007KT 10SM OVC020 06/01 A3014 RMK AO2 SLP217 T00560011 10078 20056 400891011 53007
Loading
Personal Weather Stations






























Interactive Weather Map
Tropical Storm Tracking
New forecast layout! Learn more

10-Day Weather Forecast

Advertisements
Track Severe Weather on mobile